createdAt,value
2018-09-02T00:00:17.142Z,99.90
2018-09-02T00:02:45.549Z,99.90
2018-09-02T00:05:14.027Z,99.90
2018-09-02T00:07:42.423Z,99.90
2018-09-02T00:10:10.853Z,99.90
2018-09-02T00:12:39.275Z,99.90
2018-09-02T00:15:07.827Z,99.90
2018-09-02T00:17:36.223Z,99.90
2018-09-02T00:20:04.801Z,99.90
2018-09-02T00:22:33.208Z,99.90
2018-09-02T00:25:01.663Z,99.90
2018-09-02T00:27:30.080Z,99.90
2018-09-02T00:29:58.512Z,99.90
2018-09-02T00:32:26.919Z,99.90
2018-09-02T00:34:55.328Z,99.90
2018-09-02T00:37:23.736Z,99.90
2018-09-02T00:39:52.139Z,99.90
2018-09-02T00:42:20.555Z,99.90
2018-09-02T00:44:48.979Z,99.90
2018-09-02T00:47:17.364Z,99.90
2018-09-02T00:49:45.771Z,99.90
2018-09-02T00:52:14.196Z,99.90
2018-09-02T00:54:42.643Z,99.90
2018-09-02T00:57:11.082Z,99.90
2018-09-02T00:59:40.721Z,99.90
2018-09-02T01:02:09.152Z,99.90
2018-09-02T01:04:37.567Z,99.90
2018-09-02T01:07:06.417Z,99.90
2018-09-02T01:09:34.850Z,99.90
2018-09-02T01:12:03.232Z,99.90
2018-09-02T01:14:31.662Z,99.90
2018-09-02T01:17:00.068Z,99.90
2018-09-02T01:19:28.723Z,99.90
2018-09-02T01:21:57.117Z,99.90
2018-09-02T01:24:25.548Z,99.90
2018-09-02T01:26:53.958Z,99.90
2018-09-02T01:29:22.358Z,99.90
2018-09-02T01:31:50.740Z,99.90
2018-09-02T01:34:19.148Z,99.90
2018-09-02T01:36:47.579Z,99.90
2018-09-02T01:39:16.059Z,99.90
2018-09-02T01:41:45.272Z,99.90
2018-09-02T01:44:13.671Z,99.90
2018-09-02T01:46:42.074Z,99.90
2018-09-02T01:49:10.489Z,99.90
2018-09-02T01:51:38.875Z,99.90
2018-09-02T01:54:07.259Z,99.90
2018-09-02T01:56:35.684Z,99.90
2018-09-02T01:59:04.514Z,99.90
2018-09-02T02:01:32.989Z,99.90
2018-09-02T02:04:01.385Z,99.90
2018-09-02T02:06:29.799Z,99.90
2018-09-02T02:08:58.237Z,99.90
2018-09-02T02:11:26.677Z,99.90
2018-09-02T02:13:55.097Z,99.90
2018-09-02T02:16:23.508Z,99.90
2018-09-02T02:18:51.902Z,99.90
2018-09-02T02:21:20.316Z,99.90
2018-09-02T02:23:48.743Z,99.90
2018-09-02T02:26:17.558Z,99.90
2018-09-02T02:28:45.928Z,99.90
2018-09-02T02:31:14.322Z,99.90
2018-09-02T02:33:42.792Z,99.90
2018-09-02T02:36:11.228Z,99.90
2018-09-02T02:38:39.639Z,99.90
2018-09-02T02:41:08.041Z,99.90
2018-09-02T02:43:36.432Z,99.90
2018-09-02T02:46:04.868Z,99.90
2018-09-02T02:48:33.252Z,99.90
2018-09-02T02:51:01.654Z,99.90
2018-09-02T02:53:30.056Z,99.90
2018-09-02T02:55:58.523Z,99.90
2018-09-02T02:58:26.908Z,99.90
2018-09-02T03:00:55.316Z,99.90
2018-09-02T03:03:23.704Z,99.90
2018-09-02T03:05:52.127Z,99.90
2018-09-02T03:08:20.517Z,99.90
2018-09-02T03:10:48.960Z,99.90
2018-09-02T03:13:17.314Z,99.90
2018-09-02T03:15:45.728Z,99.90
2018-09-02T03:18:14.100Z,99.90
2018-09-02T03:20:42.496Z,99.90
2018-09-02T03:23:10.982Z,99.90
2018-09-02T03:25:40.040Z,99.90
2018-09-02T03:28:08.435Z,99.90
2018-09-02T03:30:36.847Z,99.90
2018-09-02T03:33:05.407Z,99.90
2018-09-02T03:35:33.821Z,99.90
2018-09-02T03:38:02.277Z,99.90
2018-09-02T03:40:30.760Z,99.90
2018-09-02T03:42:59.144Z,99.90
2018-09-02T03:45:27.541Z,99.90
2018-09-02T03:47:58.241Z,99.90
2018-09-02T03:50:26.698Z,99.90
2018-09-02T03:52:55.136Z,99.90
2018-09-02T03:55:23.592Z,99.90
2018-09-02T03:57:51.993Z,99.90
2018-09-02T04:00:20.381Z,99.90
2018-09-02T04:02:48.775Z,99.90
2018-09-02T04:05:17.212Z,99.90
2018-09-02T04:07:45.580Z,99.90
2018-09-02T04:10:13.981Z,99.90
2018-09-02T04:12:42.387Z,99.90
2018-09-02T04:15:10.811Z,99.90
2018-09-02T04:17:39.205Z,99.90
2018-09-02T04:20:08.013Z,99.90
2018-09-02T04:22:36.390Z,99.90
2018-09-02T04:25:05.005Z,99.90
2018-09-02T04:27:33.388Z,99.90
2018-09-02T04:30:01.792Z,99.90
2018-09-02T04:32:30.183Z,99.90
2018-09-02T04:34:58.608Z,99.90
2018-09-02T04:37:27.000Z,99.90
2018-09-02T04:39:55.417Z,99.90
2018-09-02T04:42:23.876Z,99.90
2018-09-02T04:44:52.382Z,99.90
2018-09-02T04:47:20.776Z,99.90
2018-09-02T04:49:49.181Z,99.90
2018-09-02T04:52:17.575Z,99.90
2018-09-02T04:54:46.065Z,99.90
2018-09-02T04:57:14.453Z,99.90
2018-09-02T04:59:42.852Z,99.90
2018-09-02T05:02:11.261Z,99.90
2018-09-02T05:04:39.737Z,99.90
2018-09-02T05:07:08.132Z,99.90
2018-09-02T05:09:36.578Z,99.90
2018-09-02T05:12:05.129Z,99.90
2018-09-02T05:14:33.572Z,99.90
2018-09-02T05:17:01.995Z,99.90
2018-09-02T05:19:30.417Z,99.90
2018-09-02T05:21:58.862Z,99.90
2018-09-02T05:24:27.323Z,99.90
2018-09-02T05:26:55.764Z,99.90
2018-09-02T05:29:24.181Z,99.90
2018-09-02T05:31:52.584Z,99.90
2018-09-02T05:34:20.985Z,99.90
2018-09-02T05:36:49.644Z,99.90
2018-09-02T05:39:17.979Z,99.90
2018-09-02T05:41:46.394Z,99.90
2018-09-02T05:44:14.836Z,99.90
2018-09-02T05:46:43.301Z,99.90
2018-09-02T05:49:11.688Z,99.90
2018-09-02T05:51:40.117Z,99.90
2018-09-02T05:54:08.525Z,99.90
2018-09-02T05:56:36.933Z,99.90
2018-09-02T05:59:05.445Z,99.90
2018-09-02T06:01:33.840Z,99.90
2018-09-02T06:04:02.239Z,99.90
2018-09-02T06:06:30.711Z,99.90
2018-09-02T06:08:59.123Z,99.90
2018-09-02T06:11:27.541Z,99.90
2018-09-02T06:13:55.945Z,99.90
2018-09-02T06:16:24.352Z,99.90
2018-09-02T06:18:52.829Z,99.90
2018-09-02T06:21:21.265Z,99.90
2018-09-02T06:23:49.742Z,99.90
2018-09-02T06:26:18.160Z,99.90
2018-09-02T06:28:46.677Z,99.90
2018-09-02T06:31:15.082Z,99.90
2018-09-02T06:33:43.502Z,99.90
2018-09-02T06:36:11.993Z,99.90
2018-09-02T06:38:40.376Z,99.90
2018-09-02T06:41:08.824Z,99.90
2018-09-02T06:43:37.245Z,99.90
2018-09-02T06:46:05.979Z,99.90
2018-09-02T06:48:34.473Z,99.90
2018-09-02T06:51:02.892Z,99.90
2018-09-02T06:53:31.304Z,99.90
2018-09-02T06:55:59.723Z,99.90
2018-09-02T06:58:28.194Z,99.90
2018-09-02T07:00:56.602Z,99.90
2018-09-02T07:03:25.149Z,99.90
2018-09-02T07:05:53.553Z,99.90
2018-09-02T07:08:21.986Z,99.90
2018-09-02T07:10:50.532Z,99.90
2018-09-02T07:13:19.060Z,99.90
2018-09-02T07:15:47.476Z,99.90
2018-09-02T07:18:15.977Z,99.90
2018-09-02T07:20:44.406Z,99.90
2018-09-02T07:23:12.841Z,99.90
2018-09-02T07:25:42.395Z,99.90
2018-09-02T07:28:10.801Z,99.90
2018-09-02T07:30:39.273Z,99.90
2018-09-02T07:33:07.683Z,99.90
2018-09-02T07:35:36.174Z,99.90
2018-09-02T07:38:04.639Z,99.90
2018-09-02T07:40:33.600Z,99.90
2018-09-02T07:43:02.009Z,99.90
2018-09-02T07:45:30.448Z,99.90
2018-09-02T07:47:58.919Z,99.90
2018-09-02T07:50:27.340Z,99.90
2018-09-02T07:52:55.781Z,99.90
2018-09-02T07:55:24.364Z,99.90
2018-09-02T07:57:52.801Z,99.90
2018-09-02T08:00:21.537Z,99.90
2018-09-02T08:02:50.225Z,99.90
2018-09-02T08:05:18.564Z,99.90
2018-09-02T08:07:46.989Z,99.90
2018-09-02T08:10:15.428Z,99.90
2018-09-02T08:12:43.939Z,99.90
2018-09-02T08:15:12.292Z,99.90
2018-09-02T08:17:40.721Z,99.90
2018-09-02T08:20:09.308Z,99.90
2018-09-02T08:22:38.131Z,99.90
2018-09-02T08:25:06.656Z,99.90
2018-09-02T08:27:35.085Z,99.90
2018-09-02T08:30:03.528Z,99.90
2018-09-02T08:32:31.922Z,99.90
2018-09-02T08:35:00.349Z,99.90
2018-09-02T08:37:28.745Z,99.90
2018-09-02T08:39:57.183Z,99.90
2018-09-02T08:42:25.584Z,99.90
2018-09-02T08:44:54.018Z,99.90
2018-09-02T08:47:22.437Z,99.90
2018-09-02T08:49:51.176Z,99.90
2018-09-02T08:52:19.596Z,99.90
2018-09-02T08:54:48.067Z,99.90
2018-09-02T08:57:16.516Z,99.90
2018-09-02T08:59:44.998Z,99.90
2018-09-02T09:02:13.416Z,99.90
2018-09-02T09:04:41.833Z,99.90
2018-09-02T09:07:10.273Z,99.90
2018-09-02T09:09:38.688Z,99.90
2018-09-02T09:12:07.152Z,99.90
2018-09-02T09:14:35.564Z,99.90
2018-09-02T09:17:04.099Z,99.90
2018-09-02T09:19:32.438Z,99.90
2018-09-02T09:22:00.837Z,99.90
2018-09-02T09:24:29.379Z,99.90
2018-09-02T09:26:57.817Z,99.90
2018-09-02T09:29:26.224Z,99.90
2018-09-02T09:31:54.621Z,99.90
2018-09-02T09:34:23.031Z,99.90
2018-09-02T09:36:51.433Z,99.90
2018-09-02T09:39:19.839Z,99.90
2018-09-02T09:41:48.244Z,99.90
2018-09-02T09:44:16.673Z,99.90
2018-09-02T09:46:45.136Z,99.90
2018-09-02T09:49:13.619Z,99.90
2018-09-02T09:51:42.410Z,99.90
2018-09-02T09:54:10.917Z,99.90
2018-09-02T09:56:39.349Z,99.90
2018-09-02T09:59:07.760Z,99.90
2018-09-02T10:01:36.228Z,99.90
2018-09-02T10:04:04.628Z,99.90
2018-09-02T10:06:33.048Z,99.90
2018-09-02T10:09:01.549Z,99.90
2018-09-02T10:11:29.944Z,98.20
2018-09-02T10:13:58.348Z,96.70
2018-09-02T10:16:26.764Z,95.50
2018-09-02T10:18:55.160Z,94.30
2018-09-02T10:21:23.731Z,93.50
2018-09-02T10:23:52.118Z,92.30
2018-09-02T10:26:20.564Z,91.40
2018-09-02T10:28:48.967Z,91.00
2018-09-02T10:31:17.476Z,90.00
2018-09-02T10:33:45.890Z,87.50
2018-09-02T10:36:14.363Z,88.40
2018-09-02T10:38:42.784Z,87.10
2018-09-02T10:41:11.559Z,87.30
2018-09-02T10:43:39.854Z,87.00
2018-09-02T10:46:08.260Z,84.40
2018-09-02T10:48:36.684Z,84.90
2018-09-02T10:51:05.209Z,82.60
2018-09-02T10:53:33.745Z,83.80
2018-09-02T10:56:02.144Z,83.20
2018-09-02T10:58:30.574Z,81.10
2018-09-02T11:00:59.079Z,81.40
2018-09-02T11:03:27.513Z,81.10
2018-09-02T11:05:55.925Z,81.50
2018-09-02T11:08:24.366Z,80.80
2018-09-02T11:10:53.032Z,80.10
2018-09-02T11:13:21.451Z,80.10
2018-09-02T11:15:49.895Z,78.60
2018-09-02T11:18:18.385Z,78.20
2018-09-02T11:20:46.850Z,76.80
2018-09-02T11:23:15.283Z,76.80
2018-09-02T11:25:43.813Z,77.50
2018-09-02T11:28:12.232Z,77.40
2018-09-02T11:30:40.636Z,75.90
2018-09-02T11:33:09.125Z,74.50
2018-09-02T11:35:37.835Z,74.20
2018-09-02T11:38:06.853Z,75.40
2018-09-02T11:40:35.286Z,75.50
2018-09-02T11:43:03.767Z,75.20
2018-09-02T11:45:32.269Z,73.10
2018-09-02T11:48:00.692Z,73.50
2018-09-02T11:50:29.127Z,72.30
2018-09-02T11:52:57.551Z,73.70
2018-09-02T11:55:25.978Z,74.30
2018-09-02T11:57:54.775Z,74.70
2018-09-02T12:00:23.189Z,73.10
2018-09-02T12:02:51.821Z,72.50
2018-09-02T12:05:20.254Z,72.70
2018-09-02T12:07:48.684Z,71.60
2018-09-02T12:10:17.108Z,70.00
2018-09-02T12:12:45.669Z,70.10
2018-09-02T12:15:14.201Z,69.70
2018-09-02T12:17:42.788Z,70.50
2018-09-02T12:20:11.193Z,69.70
2018-09-02T12:22:39.637Z,69.30
2018-09-02T12:25:08.060Z,70.30
2018-09-02T12:27:36.468Z,70.00
2018-09-02T12:30:04.993Z,70.10
2018-09-02T12:32:33.393Z,70.90
2018-09-02T12:35:01.846Z,70.40
2018-09-02T12:37:30.275Z,69.50
2018-09-02T12:39:58.692Z,69.40
2018-09-02T12:42:27.136Z,69.60
2018-09-02T12:44:55.614Z,69.60
2018-09-02T12:47:24.087Z,70.50
2018-09-02T12:49:52.512Z,70.00
2018-09-02T12:52:21.503Z,70.00
2018-09-02T12:54:50.257Z,71.00
2018-09-02T12:57:18.341Z,70.50
2018-09-02T12:59:46.872Z,71.00
2018-09-02T13:02:15.369Z,70.70
2018-09-02T13:04:43.852Z,70.10
2018-09-02T13:07:12.292Z,70.80
2018-09-02T13:09:40.698Z,69.70
2018-09-02T13:12:09.125Z,71.00
2018-09-02T13:14:37.564Z,71.80
2018-09-02T13:17:06.182Z,72.60
2018-09-02T13:19:34.617Z,71.20
2018-09-02T13:22:03.076Z,70.40
2018-09-02T13:24:31.510Z,71.10
2018-09-02T13:26:59.879Z,72.30
2018-09-02T13:29:28.409Z,71.70
2018-09-02T13:31:57.040Z,73.20
2018-09-02T13:34:25.299Z,72.80
2018-09-02T13:36:53.725Z,73.60
2018-09-02T13:39:22.142Z,73.10
2018-09-02T13:41:50.634Z,74.00
2018-09-02T13:44:19.079Z,74.10
2018-09-02T13:46:47.550Z,74.30
2018-09-02T13:49:16.042Z,74.50
2018-09-02T13:51:44.441Z,74.50
2018-09-02T13:54:12.948Z,75.30
2018-09-02T13:56:41.482Z,75.80
2018-09-02T13:59:09.932Z,75.30
2018-09-02T14:01:38.401Z,75.70
2018-09-02T14:04:06.928Z,75.00
2018-09-02T14:06:35.378Z,75.90
2018-09-02T14:09:04.548Z,76.00
2018-09-02T14:11:32.980Z,75.90
2018-09-02T14:14:01.421Z,76.10
2018-09-02T14:16:29.894Z,76.80
2018-09-02T14:18:58.309Z,76.90
2018-09-02T14:21:26.857Z,76.20
2018-09-02T14:23:55.365Z,76.30
2018-09-02T14:26:23.832Z,77.10
2018-09-02T14:28:52.241Z,76.50
2018-09-02T14:31:21.936Z,77.00
2018-09-02T14:33:50.396Z,77.20
2018-09-02T14:36:19.027Z,76.70
2018-09-02T14:38:47.458Z,76.80
2018-09-02T14:41:15.902Z,78.40
2018-09-02T14:43:44.401Z,78.60
2018-09-02T14:46:12.812Z,77.70
2018-09-02T14:48:41.273Z,77.50
2018-09-02T14:51:09.805Z,77.60
2018-09-02T14:53:38.216Z,77.60
2018-09-02T14:56:06.637Z,78.20
2018-09-02T14:58:35.357Z,78.80
2018-09-02T15:01:03.931Z,79.40
2018-09-02T15:03:32.339Z,79.50
2018-09-02T15:06:01.081Z,78.70
2018-09-02T15:08:29.606Z,80.00
2018-09-02T15:10:58.117Z,79.00
2018-09-02T15:13:26.581Z,78.40
2018-09-02T15:15:55.771Z,77.80
2018-09-02T15:18:24.428Z,78.40
2018-09-02T15:20:53.535Z,78.70
2018-09-02T15:23:21.964Z,78.90
2018-09-02T15:25:50.378Z,80.00
2018-09-02T15:28:18.810Z,80.60
2018-09-02T15:30:47.436Z,79.30
2018-09-02T15:33:16.317Z,79.20
2018-09-02T15:35:44.875Z,79.00
2018-09-02T15:38:13.465Z,78.20
2018-09-02T15:40:41.970Z,78.90
2018-09-02T15:43:10.360Z,79.30
2018-09-02T15:45:39.340Z,79.70
2018-09-02T15:48:07.780Z,79.40
2018-09-02T15:50:36.613Z,79.10
2018-09-02T15:53:05.301Z,80.30
2018-09-02T15:55:33.738Z,80.50
2018-09-02T15:58:02.233Z,79.90
2018-09-02T16:00:30.681Z,79.80
2018-09-02T16:02:59.059Z,80.30
2018-09-02T16:05:27.551Z,81.00
2018-09-02T16:07:56.072Z,80.20
2018-09-02T16:10:24.496Z,80.20
2018-09-02T16:12:52.925Z,80.20
2018-09-02T16:15:21.421Z,80.50
2018-09-02T16:17:49.796Z,80.00
2018-09-02T16:20:18.292Z,80.40
2018-09-02T16:22:46.633Z,80.30
2018-09-02T16:25:15.085Z,80.60
2018-09-02T16:27:43.492Z,80.50
2018-09-02T16:30:11.982Z,81.10
2018-09-02T16:32:40.566Z,81.40
2018-09-02T16:35:09.111Z,80.90
2018-09-02T16:37:37.631Z,81.50
2018-09-02T16:40:06.360Z,80.70
2018-09-02T16:42:34.850Z,82.30
2018-09-02T16:45:03.766Z,82.40
2018-09-02T16:47:32.185Z,81.80
2018-09-02T16:50:00.623Z,81.90
2018-09-02T16:52:29.087Z,81.90
2018-09-02T16:54:57.490Z,81.90
2018-09-02T16:57:25.898Z,82.80
2018-09-02T16:59:54.397Z,82.10
2018-09-02T17:02:22.926Z,82.60
2018-09-02T17:04:53.817Z,82.10
2018-09-02T17:07:22.322Z,82.50
2018-09-02T17:09:50.842Z,82.40
2018-09-02T17:12:19.362Z,83.60
2018-09-02T17:14:47.749Z,82.90
2018-09-02T17:17:16.144Z,82.80
2018-09-02T17:19:47.329Z,83.20
2018-09-02T17:22:15.868Z,83.70
2018-09-02T17:24:44.491Z,84.00
2018-09-02T17:27:13.387Z,83.60
2018-09-02T17:29:41.795Z,84.00
2018-09-02T17:32:12.895Z,85.00
2018-09-02T17:34:41.321Z,85.00
2018-09-02T17:37:09.890Z,84.60
2018-09-02T17:39:38.322Z,85.10
2018-09-02T17:42:07.077Z,85.00
2018-09-02T17:44:35.590Z,85.30
2018-09-02T17:47:04.078Z,85.80
2018-09-02T17:49:32.495Z,85.90
2018-09-02T17:52:00.978Z,86.10
2018-09-02T17:54:30.226Z,86.10
2018-09-02T17:56:58.676Z,86.10
2018-09-02T17:59:27.192Z,86.10
2018-09-02T18:01:55.788Z,86.20
2018-09-02T18:04:24.316Z,87.40
2018-09-02T18:06:53.564Z,87.90
2018-09-02T18:09:22.211Z,86.90
2018-09-02T18:11:50.884Z,87.10
2018-09-02T18:14:19.333Z,87.40
2018-09-02T18:16:47.861Z,87.60
2018-09-02T18:19:16.282Z,87.30
2018-09-02T18:21:44.839Z,87.50
2018-09-02T18:24:13.298Z,87.60
2018-09-02T18:26:41.705Z,87.90
2018-09-02T18:29:10.505Z,88.10
2018-09-02T18:31:38.990Z,88.20
2018-09-02T18:34:07.445Z,88.60
2018-09-02T18:36:36.456Z,88.50
2018-09-02T18:39:08.871Z,88.70
2018-09-02T18:41:38.033Z,89.40
2018-09-02T18:44:06.532Z,90.00
2018-09-02T18:46:35.083Z,90.00
2018-09-02T18:49:04.804Z,90.30
2018-09-02T18:51:33.226Z,90.30
2018-09-02T18:54:02.046Z,90.90
2018-09-02T18:56:30.955Z,91.20
2018-09-02T18:58:59.589Z,90.90
2018-09-02T19:01:28.634Z,90.20
2018-09-02T19:03:57.624Z,90.20
2018-09-02T19:06:26.500Z,90.30
2018-09-02T19:08:54.963Z,90.50
2018-09-02T19:11:23.682Z,90.30
2018-09-02T19:13:52.569Z,90.40
2018-09-02T19:16:21.356Z,90.20
2018-09-02T19:18:50.327Z,90.50
2018-09-02T19:21:19.193Z,90.70
2018-09-02T19:23:47.690Z,90.60
2018-09-02T19:26:16.503Z,90.60
2018-09-02T19:28:45.294Z,90.50
2018-09-02T19:31:14.080Z,90.60
2018-09-02T19:33:42.868Z,90.60
2018-09-02T19:36:11.581Z,90.60
2018-09-02T19:38:40.388Z,90.90
2018-09-02T19:41:08.944Z,90.70
2018-09-02T19:43:37.713Z,91.00
2018-09-02T19:46:06.228Z,91.00
2018-09-02T19:48:34.673Z,91.10
2018-09-02T19:51:03.352Z,91.40
2018-09-02T19:53:32.146Z,91.30
2018-09-02T19:56:00.901Z,90.80
2018-09-02T19:58:29.514Z,90.50
2018-09-02T20:00:57.917Z,90.50
2018-09-02T20:03:26.379Z,90.50
2018-09-02T20:05:54.932Z,90.60
2018-09-02T20:08:23.312Z,90.90
2018-09-02T20:10:51.955Z,90.90
2018-09-02T20:13:20.598Z,91.50
2018-09-02T20:15:49.024Z,91.50
2018-09-02T20:18:17.565Z,91.70
2018-09-02T20:20:46.023Z,91.90
2018-09-02T20:23:14.432Z,92.00
2018-09-02T20:25:43.208Z,92.20
2018-09-02T20:28:11.716Z,92.60
2018-09-02T20:30:40.149Z,92.70
2018-09-02T20:33:08.836Z,93.10
2018-09-02T20:35:37.520Z,93.10
2018-09-02T20:38:06.020Z,93.40
2018-09-02T20:40:34.464Z,93.60
2018-09-02T20:43:02.844Z,94.00
2018-09-02T20:45:31.516Z,94.50
2018-09-02T20:48:00.022Z,95.00
2018-09-02T20:50:29.139Z,95.20
2018-09-02T20:52:58.405Z,95.50
2018-09-02T20:55:27.092Z,96.00
2018-09-02T20:57:55.607Z,96.40
2018-09-02T21:00:24.080Z,96.80
2018-09-02T21:02:52.649Z,97.10
2018-09-02T21:05:21.322Z,97.20
2018-09-02T21:07:49.716Z,97.50
2018-09-02T21:10:18.136Z,98.00
2018-09-02T21:12:46.872Z,98.20
2018-09-02T21:15:15.487Z,98.30
2018-09-02T21:17:43.883Z,98.90
2018-09-02T21:20:12.311Z,99.50
2018-09-02T21:22:40.745Z,99.80
2018-09-02T21:25:09.450Z,99.80
2018-09-02T21:27:37.915Z,99.90
2018-09-02T21:30:06.667Z,99.90
2018-09-02T21:32:35.102Z,99.90
2018-09-02T21:35:03.537Z,99.90
2018-09-02T21:37:31.956Z,99.90
2018-09-02T21:40:00.333Z,99.90
2018-09-02T21:42:28.963Z,99.90
2018-09-02T21:44:57.466Z,99.90
2018-09-02T21:47:25.849Z,99.90
2018-09-02T21:49:54.305Z,99.90
2018-09-02T21:52:22.701Z,99.90
2018-09-02T21:54:51.132Z,99.90
2018-09-02T21:57:19.513Z,99.90
2018-09-02T21:59:48.170Z,99.90
2018-09-02T22:02:16.564Z,99.90
2018-09-02T22:04:44.926Z,99.90
2018-09-02T22:07:13.351Z,99.90
2018-09-02T22:09:41.726Z,99.90
2018-09-02T22:12:10.137Z,99.90
2018-09-02T22:14:38.585Z,99.90
2018-09-02T22:17:06.944Z,99.90
2018-09-02T22:19:35.562Z,99.90
2018-09-02T22:22:04.049Z,99.90
2018-09-02T22:24:32.416Z,99.90
2018-09-02T22:27:00.939Z,99.90
2018-09-02T22:29:29.367Z,99.90
2018-09-02T22:31:57.748Z,99.90
2018-09-02T22:34:26.152Z,99.90
2018-09-02T22:36:54.542Z,99.90
2018-09-02T22:39:22.937Z,99.90
2018-09-02T22:41:51.429Z,99.90
2018-09-02T22:44:19.857Z,99.90
2018-09-02T22:46:48.248Z,99.90
2018-09-02T22:49:16.632Z,99.90
2018-09-02T22:51:45.053Z,99.90
2018-09-02T22:54:13.434Z,99.90
2018-09-02T22:56:41.860Z,99.90
2018-09-02T22:59:10.263Z,99.90
2018-09-02T23:01:38.720Z,99.90
2018-09-02T23:04:07.297Z,99.90
2018-09-02T23:06:35.675Z,99.90
2018-09-02T23:09:05.721Z,99.90
2018-09-02T23:11:34.151Z,99.90
2018-09-02T23:14:02.556Z,99.90
2018-09-02T23:16:31.560Z,99.90
2018-09-02T23:18:59.976Z,99.90
2018-09-02T23:21:28.363Z,99.90
2018-09-02T23:23:56.787Z,99.90
2018-09-02T23:26:25.220Z,99.90
2018-09-02T23:28:53.652Z,99.90
2018-09-02T23:31:22.090Z,99.90
2018-09-02T23:33:50.705Z,99.90
2018-09-02T23:36:19.369Z,99.90
2018-09-02T23:38:47.889Z,99.90
2018-09-02T23:41:16.284Z,99.90
2018-09-02T23:43:45.049Z,99.90
2018-09-02T23:46:13.456Z,99.90
2018-09-02T23:48:41.844Z,99.90
2018-09-02T23:51:10.278Z,99.90
2018-09-02T23:53:38.671Z,99.90
2018-09-02T23:56:07.441Z,99.90
2018-09-02T23:58:35.824Z,99.90
